sensor_id;sensor_type;location;lat;lon;timestamp;temperature;humidity
53904;DHT22;39812;52.430;16.936;2023-06-14T00:01:32;13.90;99.90
53904;DHT22;39812;52.430;16.936;2023-06-14T00:04:00;13.90;99.90
53904;DHT22;39812;52.430;16.936;2023-06-14T00:06:28;13.90;99.90
53904;DHT22;39812;52.430;16.936;2023-06-14T00:08:54;13.80;99.90
53904;DHT22;39812;52.430;16.936;2023-06-14T00:11:20;14.00;99.90
53904;DHT22;39812;52.430;16.936;2023-06-14T00:13:46;13.90;99.90
53904;DHT22;39812;52.430;16.936;2023-06-14T00:16:12;13.90;99.90
53904;DHT22;39812;52.430;16.936;2023-06-14T00:18:38;13.90;99.90
53904;DHT22;39812;52.430;16.936;2023-06-14T00:21:04;14.00;99.90
53904;DHT22;39812;52.430;16.936;2023-06-14T00:23:30;14.00;99.90
53904;DHT22;39812;52.430;16.936;2023-06-14T00:25:55;14.00;99.90
53904;DHT22;39812;52.430;16.936;2023-06-14T00:28:21;14.10;99.90
53904;DHT22;39812;52.430;16.936;2023-06-14T00:30:47;14.20;99.90
53904;DHT22;39812;52.430;16.936;2023-06-14T00:33:12;14.20;99.90
53904;DHT22;39812;52.430;16.936;2023-06-14T00:35:38;14.20;99.90
53904;DHT22;39812;52.430;16.936;2023-06-14T00:38:04;14.10;99.90
53904;DHT22;39812;52.430;16.936;2023-06-14T00:40:29;14.00;99.90
53904;DHT22;39812;52.430;16.936;2023-06-14T00:42:55;14.00;99.90
53904;DHT22;39812;52.430;16.936;2023-06-14T00:45:21;14.10;99.90
53904;DHT22;39812;52.430;16.936;2023-06-14T00:47:47;14.10;99.90
53904;DHT22;39812;52.430;16.936;2023-06-14T00:50:13;14.00;99.90
53904;DHT22;39812;52.430;16.936;2023-06-14T00:52:39;14.00;99.90
53904;DHT22;39812;52.430;16.936;2023-06-14T00:55:06;14.00;99.90
53904;DHT22;39812;52.430;16.936;2023-06-14T00:57:32;14.00;99.90
53904;DHT22;39812;52.430;16.936;2023-06-14T00:59:57;14.00;99.90
53904;DHT22;39812;52.430;16.936;2023-06-14T01:02:23;14.00;99.90
53904;DHT22;39812;52.430;16.936;2023-06-14T01:04:52;14.00;99.90
53904;DHT22;39812;52.430;16.936;2023-06-14T01:12:51;13.90;99.90
53904;DHT22;39812;52.430;16.936;2023-06-14T01:15:21;13.90;99.90
53904;DHT22;39812;52.430;16.936;2023-06-14T01:17:49;13.90;99.90
53904;DHT22;39812;52.430;16.936;2023-06-14T01:20:17;13.90;99.90
53904;DHT22;39812;52.430;16.936;2023-06-14T01:22:52;13.90;99.90
53904;DHT22;39812;52.430;16.936;2023-06-14T01:25:19;13.90;99.90
53904;DHT22;39812;52.430;16.936;2023-06-14T01:28:00;13.80;99.90
53904;DHT22;39812;52.430;16.936;2023-06-14T01:30:28;13.90;99.90
53904;DHT22;39812;52.430;16.936;2023-06-14T01:32:55;13.80;99.90
53904;DHT22;39812;52.430;16.936;2023-06-14T01:35:22;13.80;99.90
53904;DHT22;39812;52.430;16.936;2023-06-14T01:37:48;13.80;99.90
53904;DHT22;39812;52.430;16.936;2023-06-14T01:40:15;13.80;99.90
53904;DHT22;39812;52.430;16.936;2023-06-14T01:42:42;13.70;99.90
53904;DHT22;39812;52.430;16.936;2023-06-14T01:45:10;13.50;99.90
53904;DHT22;39812;52.430;16.936;2023-06-14T01:47:36;13.40;99.90
53904;DHT22;39812;52.430;16.936;2023-06-14T01:50:05;13.30;99.90
53904;DHT22;39812;52.430;16.936;2023-06-14T01:52:31;13.20;99.90
53904;DHT22;39812;52.430;16.936;2023-06-14T01:54:57;13.20;99.90
53904;DHT22;39812;52.430;16.936;2023-06-14T01:57:24;13.20;99.90
53904;DHT22;39812;52.430;16.936;2023-06-14T01:59:50;13.30;99.90
53904;DHT22;39812;52.430;16.936;2023-06-14T02:02:16;13.30;99.90
53904;DHT22;39812;52.430;16.936;2023-06-14T02:04:42;13.40;99.90
53904;DHT22;39812;52.430;16.936;2023-06-14T02:07:08;13.40;99.90
53904;DHT22;39812;52.430;16.936;2023-06-14T02:09:34;13.40;99.90
53904;DHT22;39812;52.430;16.936;2023-06-14T02:12:00;13.40;99.90
53904;DHT22;39812;52.430;16.936;2023-06-14T02:14:26;13.30;99.90
53904;DHT22;39812;52.430;16.936;2023-06-14T02:16:52;13.40;99.90
53904;DHT22;39812;52.430;16.936;2023-06-14T02:19:19;13.40;99.90
53904;DHT22;39812;52.430;16.936;2023-06-14T02:21:46;13.40;99.90
53904;DHT22;39812;52.430;16.936;2023-06-14T02:24:13;13.40;99.90
53904;DHT22;39812;52.430;16.936;2023-06-14T02:26:39;13.40;99.90
53904;DHT22;39812;52.430;16.936;2023-06-14T02:29:05;13.50;99.90
53904;DHT22;39812;52.430;16.936;2023-06-14T02:31:31;13.50;99.90
53904;DHT22;39812;52.430;16.936;2023-06-14T02:33:58;13.50;99.90
53904;DHT22;39812;52.430;16.936;2023-06-14T02:36:24;13.40;99.90
53904;DHT22;39812;52.430;16.936;2023-06-14T02:38:50;13.40;99.90
53904;DHT22;39812;52.430;16.936;2023-06-14T02:41:15;13.40;99.90
53904;DHT22;39812;52.430;16.936;2023-06-14T02:43:41;13.40;99.90
53904;DHT22;39812;52.430;16.936;2023-06-14T02:46:07;13.40;99.90
53904;DHT22;39812;52.430;16.936;2023-06-14T02:48:33;13.40;99.90
53904;DHT22;39812;52.430;16.936;2023-06-14T02:50:58;13.40;99.90
53904;DHT22;39812;52.430;16.936;2023-06-14T02:53:24;13.40;99.90
53904;DHT22;39812;52.430;16.936;2023-06-14T02:55:50;13.40;99.90
53904;DHT22;39812;52.430;16.936;2023-06-14T02:58:15;13.40;99.90
53904;DHT22;39812;52.430;16.936;2023-06-14T03:00:42;13.40;99.90
53904;DHT22;39812;52.430;16.936;2023-06-14T03:03:08;13.40;99.90
53904;DHT22;39812;52.430;16.936;2023-06-14T03:05:44;13.50;99.90
53904;DHT22;39812;52.430;16.936;2023-06-14T03:08:15;13.50;99.90
53904;DHT22;39812;52.430;16.936;2023-06-14T03:10:48;13.40;99.90
53904;DHT22;39812;52.430;16.936;2023-06-14T03:13:15;13.40;99.90
53904;DHT22;39812;52.430;16.936;2023-06-14T03:15:44;13.50;99.90
53904;DHT22;39812;52.430;16.936;2023-06-14T03:18:10;13.50;99.90
53904;DHT22;39812;52.430;16.936;2023-06-14T03:20:37;13.50;99.90
53904;DHT22;39812;52.430;16.936;2023-06-14T03:23:04;13.50;99.90
53904;DHT22;39812;52.430;16.936;2023-06-14T03:25:31;13.50;99.90
53904;DHT22;39812;52.430;16.936;2023-06-14T03:27:57;13.50;99.90
53904;DHT22;39812;52.430;16.936;2023-06-14T03:30:23;13.60;99.90
53904;DHT22;39812;52.430;16.936;2023-06-14T03:32:48;13.60;99.90
53904;DHT22;39812;52.430;16.936;2023-06-14T03:35:14;13.80;99.90
53904;DHT22;39812;52.430;16.936;2023-06-14T03:37:46;13.80;99.90
53904;DHT22;39812;52.430;16.936;2023-06-14T03:40:17;13.80;99.90
53904;DHT22;39812;52.430;16.936;2023-06-14T03:42:43;13.70;99.90
53904;DHT22;39812;52.430;16.936;2023-06-14T03:45:09;13.80;99.90
53904;DHT22;39812;52.430;16.936;2023-06-14T03:47:35;13.80;99.90
53904;DHT22;39812;52.430;16.936;2023-06-14T03:50:04;13.80;99.90
53904;DHT22;39812;52.430;16.936;2023-06-14T03:52:30;13.90;99.90
53904;DHT22;39812;52.430;16.936;2023-06-14T03:54:58;13.80;99.90
53904;DHT22;39812;52.430;16.936;2023-06-14T03:57:25;13.80;99.90
53904;DHT22;39812;52.430;16.936;2023-06-14T03:59:51;13.80;99.90
53904;DHT22;39812;52.430;16.936;2023-06-14T04:02:17;13.80;99.90
53904;DHT22;39812;52.430;16.936;2023-06-14T04:04:43;13.80;99.90
53904;DHT22;39812;52.430;16.936;2023-06-14T04:07:13;13.80;99.90
53904;DHT22;39812;52.430;16.936;2023-06-14T04:09:39;13.90;99.90
53904;DHT22;39812;52.430;16.936;2023-06-14T04:12:06;13.90;99.90
53904;DHT22;39812;52.430;16.936;2023-06-14T04:14:34;13.90;99.90
53904;DHT22;39812;52.430;16.936;2023-06-14T04:17:00;13.90;99.90
53904;DHT22;39812;52.430;16.936;2023-06-14T04:19:26;14.00;99.90
53904;DHT22;39812;52.430;16.936;2023-06-14T04:21:52;14.00;99.90
53904;DHT22;39812;52.430;16.936;2023-06-14T04:24:17;14.00;99.90
53904;DHT22;39812;52.430;16.936;2023-06-14T04:26:44;14.00;99.90
53904;DHT22;39812;52.430;16.936;2023-06-14T04:29:13;14.10;99.90
53904;DHT22;39812;52.430;16.936;2023-06-14T04:31:46;14.00;99.90
53904;DHT22;39812;52.430;16.936;2023-06-14T04:34:12;14.00;99.90
53904;DHT22;39812;52.430;16.936;2023-06-14T04:36:47;14.10;99.90
53904;DHT22;39812;52.430;16.936;2023-06-14T04:39:20;14.10;99.90
53904;DHT22;39812;52.430;16.936;2023-06-14T04:41:49;14.20;99.90
53904;DHT22;39812;52.430;16.936;2023-06-14T04:44:19;14.30;99.90
53904;DHT22;39812;52.430;16.936;2023-06-14T04:46:45;14.30;99.90
53904;DHT22;39812;52.430;16.936;2023-06-14T04:49:17;14.30;99.90
53904;DHT22;39812;52.430;16.936;2023-06-14T04:51:44;14.40;99.90
53904;DHT22;39812;52.430;16.936;2023-06-14T04:54:11;14.60;99.90
53904;DHT22;39812;52.430;16.936;2023-06-14T04:56:43;14.70;99.90
53904;DHT22;39812;52.430;16.936;2023-06-14T04:59:09;14.80;99.90
53904;DHT22;39812;52.430;16.936;2023-06-14T05:01:36;15.00;99.90
53904;DHT22;39812;52.430;16.936;2023-06-14T05:04:03;15.10;99.90
53904;DHT22;39812;52.430;16.936;2023-06-14T05:06:29;15.10;99.90
53904;DHT22;39812;52.430;16.936;2023-06-14T05:08:55;15.20;99.90
53904;DHT22;39812;52.430;16.936;2023-06-14T05:11:21;15.20;99.90
53904;DHT22;39812;52.430;16.936;2023-06-14T05:13:49;15.30;99.90
53904;DHT22;39812;52.430;16.936;2023-06-14T05:16:15;15.40;99.90
53904;DHT22;39812;52.430;16.936;2023-06-14T05:18:42;15.50;99.90
53904;DHT22;39812;52.430;16.936;2023-06-14T05:21:08;15.60;99.90
53904;DHT22;39812;52.430;16.936;2023-06-14T05:23:34;15.70;99.90
53904;DHT22;39812;52.430;16.936;2023-06-14T05:25:59;15.70;99.90
53904;DHT22;39812;52.430;16.936;2023-06-14T05:28:28;15.70;99.90
53904;DHT22;39812;52.430;16.936;2023-06-14T05:30:53;15.80;99.90
53904;DHT22;39812;52.430;16.936;2023-06-14T05:33:19;15.80;99.90
53904;DHT22;39812;52.430;16.936;2023-06-14T05:35:45;15.90;99.90
53904;DHT22;39812;52.430;16.936;2023-06-14T05:38:10;16.00;99.90
53904;DHT22;39812;52.430;16.936;2023-06-14T05:40:36;16.10;99.90
53904;DHT22;39812;52.430;16.936;2023-06-14T05:43:02;16.10;99.90
53904;DHT22;39812;52.430;16.936;2023-06-14T05:45:27;16.10;99.90
53904;DHT22;39812;52.430;16.936;2023-06-14T05:47:53;16.10;99.90
53904;DHT22;39812;52.430;16.936;2023-06-14T05:50:20;16.00;99.90
53904;DHT22;39812;52.430;16.936;2023-06-14T05:52:46;16.00;99.90
53904;DHT22;39812;52.430;16.936;2023-06-14T05:55:12;16.10;99.90
53904;DHT22;39812;52.430;16.936;2023-06-14T05:57:38;16.40;99.90
53904;DHT22;39812;52.430;16.936;2023-06-14T06:00:04;16.50;99.90
53904;DHT22;39812;52.430;16.936;2023-06-14T06:02:44;16.80;99.90
53904;DHT22;39812;52.430;16.936;2023-06-14T06:05:10;16.90;99.90
53904;DHT22;39812;52.430;16.936;2023-06-14T06:07:37;16.90;99.90
53904;DHT22;39812;52.430;16.936;2023-06-14T06:10:03;17.00;99.90
53904;DHT22;39812;52.430;16.936;2023-06-14T06:12:30;17.00;99.90
53904;DHT22;39812;52.430;16.936;2023-06-14T06:14:56;17.10;99.90
53904;DHT22;39812;52.430;16.936;2023-06-14T06:17:21;17.10;99.90
53904;DHT22;39812;52.430;16.936;2023-06-14T06:19:47;17.10;99.90
53904;DHT22;39812;52.430;16.936;2023-06-14T06:22:13;17.10;99.90
53904;DHT22;39812;52.430;16.936;2023-06-14T06:24:38;17.00;99.90
53904;DHT22;39812;52.430;16.936;2023-06-14T06:27:04;16.90;99.90
53904;DHT22;39812;52.430;16.936;2023-06-14T06:29:30;16.90;99.90
53904;DHT22;39812;52.430;16.936;2023-06-14T06:31:55;16.90;99.90
53904;DHT22;39812;52.430;16.936;2023-06-14T06:34:22;16.80;99.90
53904;DHT22;39812;52.430;16.936;2023-06-14T06:36:47;16.90;99.90
53904;DHT22;39812;52.430;16.936;2023-06-14T06:39:13;16.90;99.90
53904;DHT22;39812;52.430;16.936;2023-06-14T06:41:40;17.00;99.90
53904;DHT22;39812;52.430;16.936;2023-06-14T06:44:07;17.20;99.90
53904;DHT22;39812;52.430;16.936;2023-06-14T06:46:33;17.40;99.90
53904;DHT22;39812;52.430;16.936;2023-06-14T06:48:59;17.50;99.90
53904;DHT22;39812;52.430;16.936;2023-06-14T06:51:25;17.50;99.90
53904;DHT22;39812;52.430;16.936;2023-06-14T06:53:54;17.60;99.90
53904;DHT22;39812;52.430;16.936;2023-06-14T06:56:21;17.80;99.90
53904;DHT22;39812;52.430;16.936;2023-06-14T06:58:49;17.80;99.90
53904;DHT22;39812;52.430;16.936;2023-06-14T07:01:15;17.80;99.90
53904;DHT22;39812;52.430;16.936;2023-06-14T07:03:41;17.80;99.90
53904;DHT22;39812;52.430;16.936;2023-06-14T07:06:07;18.00;99.90
53904;DHT22;39812;52.430;16.936;2023-06-14T07:08:32;18.10;99.90
53904;DHT22;39812;52.430;16.936;2023-06-14T07:10:58;18.10;99.40
53904;DHT22;39812;52.430;16.936;2023-06-14T07:13:23;18.00;99.60
53904;DHT22;39812;52.430;16.936;2023-06-14T07:15:49;18.00;99.50
53904;DHT22;39812;52.430;16.936;2023-06-14T07:18:15;18.00;99.30
53904;DHT22;39812;52.430;16.936;2023-06-14T07:20:41;18.10;99.50
53904;DHT22;39812;52.430;16.936;2023-06-14T07:23:08;17.80;99.80
53904;DHT22;39812;52.430;16.936;2023-06-14T07:25:33;18.00;99.90
53904;DHT22;39812;52.430;16.936;2023-06-14T07:27:59;18.20;99.00
53904;DHT22;39812;52.430;16.936;2023-06-14T07:30:24;18.40;98.80
53904;DHT22;39812;52.430;16.936;2023-06-14T07:32:53;18.30;98.80
53904;DHT22;39812;52.430;16.936;2023-06-14T07:35:19;18.50;98.20
53904;DHT22;39812;52.430;16.936;2023-06-14T07:37:44;18.70;97.50
53904;DHT22;39812;52.430;16.936;2023-06-14T07:40:12;19.00;97.40
53904;DHT22;39812;52.430;16.936;2023-06-14T07:42:38;19.40;96.80
53904;DHT22;39812;52.430;16.936;2023-06-14T07:45:05;19.40;95.60
53904;DHT22;39812;52.430;16.936;2023-06-14T07:47:31;19.80;94.80
53904;DHT22;39812;52.430;16.936;2023-06-14T07:49:57;20.20;93.40
53904;DHT22;39812;52.430;16.936;2023-06-14T07:52:22;20.50;92.70
53904;DHT22;39812;52.430;16.936;2023-06-14T07:54:48;20.60;91.40
53904;DHT22;39812;52.430;16.936;2023-06-14T07:57:13;20.60;91.10
53904;DHT22;39812;52.430;16.936;2023-06-14T07:59:39;20.50;90.90
53904;DHT22;39812;52.430;16.936;2023-06-14T08:02:05;20.60;91.10
53904;DHT22;39812;52.430;16.936;2023-06-14T08:04:32;20.60;90.20
53904;DHT22;39812;52.430;16.936;2023-06-14T08:06:59;20.70;90.30
53904;DHT22;39812;52.430;16.936;2023-06-14T08:09:25;20.70;88.80
53904;DHT22;39812;52.430;16.936;2023-06-14T08:11:50;20.80;89.10
53904;DHT22;39812;52.430;16.936;2023-06-14T08:14:16;21.00;89.50
53904;DHT22;39812;52.430;16.936;2023-06-14T08:16:42;20.90;88.80
53904;DHT22;39812;52.430;16.936;2023-06-14T08:19:08;20.90;87.60
53904;DHT22;39812;52.430;16.936;2023-06-14T08:21:33;20.80;88.30
53904;DHT22;39812;52.430;16.936;2023-06-14T08:24:02;20.70;87.80
53904;DHT22;39812;52.430;16.936;2023-06-14T08:26:27;20.80;88.00
53904;DHT22;39812;52.430;16.936;2023-06-14T08:28:57;21.00;86.30
53904;DHT22;39812;52.430;16.936;2023-06-14T08:31:23;21.20;86.50
53904;DHT22;39812;52.430;16.936;2023-06-14T08:33:50;21.20;84.40
53904;DHT22;39812;52.430;16.936;2023-06-14T08:36:16;21.30;83.30
53904;DHT22;39812;52.430;16.936;2023-06-14T08:38:41;21.40;83.80
53904;DHT22;39812;52.430;16.936;2023-06-14T08:41:08;21.00;84.10
53904;DHT22;39812;52.430;16.936;2023-06-14T08:43:37;21.00;83.40
53904;DHT22;39812;52.430;16.936;2023-06-14T08:46:03;21.40;83.20
53904;DHT22;39812;52.430;16.936;2023-06-14T08:48:30;21.50;81.80
53904;DHT22;39812;52.430;16.936;2023-06-14T08:51:02;21.90;81.30
53904;DHT22;39812;52.430;16.936;2023-06-14T08:53:31;22.40;80.20
53904;DHT22;39812;52.430;16.936;2023-06-14T08:56:00;23.00;78.70
53904;DHT22;39812;52.430;16.936;2023-06-14T08:58:30;23.40;76.60
53904;DHT22;39812;52.430;16.936;2023-06-14T09:00:57;23.80;75.20
53904;DHT22;39812;52.430;16.936;2023-06-14T09:03:24;24.00;73.70
53904;DHT22;39812;52.430;16.936;2023-06-14T09:05:56;24.30;71.20
53904;DHT22;39812;52.430;16.936;2023-06-14T09:08:22;24.20;70.40
53904;DHT22;39812;52.430;16.936;2023-06-14T09:10:49;24.10;71.50
53904;DHT22;39812;52.430;16.936;2023-06-14T09:13:15;24.00;71.10
53904;DHT22;39812;52.430;16.936;2023-06-14T09:15:41;23.90;71.40
53904;DHT22;39812;52.430;16.936;2023-06-14T09:18:07;23.60;72.00
53904;DHT22;39812;52.430;16.936;2023-06-14T09:20:33;24.00;70.80
53904;DHT22;39812;52.430;16.936;2023-06-14T09:23:00;24.00;70.90
53904;DHT22;39812;52.430;16.936;2023-06-14T09:25:26;24.80;69.00
53904;DHT22;39812;52.430;16.936;2023-06-14T09:27:52;25.10;68.20
53904;DHT22;39812;52.430;16.936;2023-06-14T09:30:20;24.80;68.30
53904;DHT22;39812;52.430;16.936;2023-06-14T09:32:46;23.70;70.80
53904;DHT22;39812;52.430;16.936;2023-06-14T09:35:12;23.20;71.80
53904;DHT22;39812;52.430;16.936;2023-06-14T09:37:38;22.90;71.20
53904;DHT22;39812;52.430;16.936;2023-06-14T09:40:04;22.90;72.10
53904;DHT22;39812;52.430;16.936;2023-06-14T09:42:30;23.00;71.90
53904;DHT22;39812;52.430;16.936;2023-06-14T09:44:56;22.70;73.10
53904;DHT22;39812;52.430;16.936;2023-06-14T09:47:24;22.70;74.70
53904;DHT22;39812;52.430;16.936;2023-06-14T09:49:51;22.60;74.20
53904;DHT22;39812;52.430;16.936;2023-06-14T09:52:18;22.30;74.50
53904;DHT22;39812;52.430;16.936;2023-06-14T09:54:46;22.30;73.40
53904;DHT22;39812;52.430;16.936;2023-06-14T09:57:13;22.40;72.70
53904;DHT22;39812;52.430;16.936;2023-06-14T09:59:43;22.60;72.90
53904;DHT22;39812;52.430;16.936;2023-06-14T10:02:25;22.40;73.50
53904;DHT22;39812;52.430;16.936;2023-06-14T10:05:11;22.10;73.90
53904;DHT22;39812;52.430;16.936;2023-06-14T10:07:48;22.40;73.20
53904;DHT22;39812;52.430;16.936;2023-06-14T10:10:14;22.80;73.00
53904;DHT22;39812;52.430;16.936;2023-06-14T10:12:40;23.20;71.80
53904;DHT22;39812;52.430;16.936;2023-06-14T10:15:09;23.20;71.50
53904;DHT22;39812;52.430;16.936;2023-06-14T10:20:14;23.30;71.10
53904;DHT22;39812;52.430;16.936;2023-06-14T10:22:49;23.30;70.30
53904;DHT22;39812;52.430;16.936;2023-06-14T10:25:29;23.00;71.00
53904;DHT22;39812;52.430;16.936;2023-06-14T10:28:18;23.80;69.30
53904;DHT22;39812;52.430;16.936;2023-06-14T10:31:03;24.10;67.80
53904;DHT22;39812;52.430;16.936;2023-06-14T10:33:35;24.50;67.00
53904;DHT22;39812;52.430;16.936;2023-06-14T10:38:36;26.50;64.20
53904;DHT22;39812;52.430;16.936;2023-06-14T10:41:02;26.20;62.40
53904;DHT22;39812;52.430;16.936;2023-06-14T10:43:28;25.80;63.20
53904;DHT22;39812;52.430;16.936;2023-06-14T10:46:14;24.80;64.10
53904;DHT22;39812;52.430;16.936;2023-06-14T10:48:44;24.80;65.10
53904;DHT22;39812;52.430;16.936;2023-06-14T10:51:19;25.30;64.30
53904;DHT22;39812;52.430;16.936;2023-06-14T10:53:49;25.50;62.10
53904;DHT22;39812;52.430;16.936;2023-06-14T10:56:27;25.40;62.10
53904;DHT22;39812;52.430;16.936;2023-06-14T10:58:55;25.10;62.30
53904;DHT22;39812;52.430;16.936;2023-06-14T11:01:35;24.60;64.00
53904;DHT22;39812;52.430;16.936;2023-06-14T11:04:10;24.80;63.90
53904;DHT22;39812;52.430;16.936;2023-06-14T11:09:40;24.50;64.80
53904;DHT22;39812;52.430;16.936;2023-06-14T11:12:11;24.50;65.10
53904;DHT22;39812;52.430;16.936;2023-06-14T11:14:39;25.20;65.20
53904;DHT22;39812;52.430;16.936;2023-06-14T11:17:05;25.50;64.10
53904;DHT22;39812;52.430;16.936;2023-06-14T11:19:31;25.70;63.10
53904;DHT22;39812;52.430;16.936;2023-06-14T11:21:57;24.70;63.30
53904;DHT22;39812;52.430;16.936;2023-06-14T11:24:22;24.80;64.30
53904;DHT22;39812;52.430;16.936;2023-06-14T11:26:48;25.40;62.20
53904;DHT22;39812;52.430;16.936;2023-06-14T11:29:16;25.20;62.00
53904;DHT22;39812;52.430;16.936;2023-06-14T11:31:46;26.40;60.90
53904;DHT22;39812;52.430;16.936;2023-06-14T11:34:12;27.00;59.10
53904;DHT22;39812;52.430;16.936;2023-06-14T11:36:38;28.50;57.80
53904;DHT22;39812;52.430;16.936;2023-06-14T11:39:08;28.70;56.60
53904;DHT22;39812;52.430;16.936;2023-06-14T11:41:41;29.30;55.80
53904;DHT22;39812;52.430;16.936;2023-06-14T11:44:07;30.60;54.20
53904;DHT22;39812;52.430;16.936;2023-06-14T11:46:33;30.20;53.70
53904;DHT22;39812;52.430;16.936;2023-06-14T11:48:59;29.80;53.40
53904;DHT22;39812;52.430;16.936;2023-06-14T11:51:29;28.90;53.70
53904;DHT22;39812;52.430;16.936;2023-06-14T11:53:55;27.60;55.30
53904;DHT22;39812;52.430;16.936;2023-06-14T11:56:20;26.80;56.90
53904;DHT22;39812;52.430;16.936;2023-06-14T11:58:46;26.20;58.10
53904;DHT22;39812;52.430;16.936;2023-06-14T12:01:17;26.10;58.70
53904;DHT22;39812;52.430;16.936;2023-06-14T12:03:49;26.10;58.60
53904;DHT22;39812;52.430;16.936;2023-06-14T12:06:15;26.10;59.10
53904;DHT22;39812;52.430;16.936;2023-06-14T12:08:43;26.00;59.00
53904;DHT22;39812;52.430;16.936;2023-06-14T12:11:12;26.10;58.90
53904;DHT22;39812;52.430;16.936;2023-06-14T12:13:39;26.30;58.70
53904;DHT22;39812;52.430;16.936;2023-06-14T12:16:11;26.50;57.90
53904;DHT22;39812;52.430;16.936;2023-06-14T12:18:39;27.00;57.30
53904;DHT22;39812;52.430;16.936;2023-06-14T12:21:08;27.00;56.70
53904;DHT22;39812;52.430;16.936;2023-06-14T12:23:47;26.50;57.10
53904;DHT22;39812;52.430;16.936;2023-06-14T12:26:14;26.20;57.80
53904;DHT22;39812;52.430;16.936;2023-06-14T12:28:42;26.30;57.80
53904;DHT22;39812;52.430;16.936;2023-06-14T12:31:14;26.40;57.50
53904;DHT22;39812;52.430;16.936;2023-06-14T12:33:40;26.50;57.30
53904;DHT22;39812;52.430;16.936;2023-06-14T12:36:10;25.80;57.50
53904;DHT22;39812;52.430;16.936;2023-06-14T12:38:36;25.40;59.20
53904;DHT22;39812;52.430;16.936;2023-06-14T12:41:03;25.60;58.40
53904;DHT22;39812;52.430;16.936;2023-06-14T12:43:29;25.60;58.30
53904;DHT22;39812;52.430;16.936;2023-06-14T12:45:54;26.30;57.00
53904;DHT22;39812;52.430;16.936;2023-06-14T12:48:20;26.40;57.10
53904;DHT22;39812;52.430;16.936;2023-06-14T12:50:47;26.40;56.70
53904;DHT22;39812;52.430;16.936;2023-06-14T12:53:12;27.20;55.70
53904;DHT22;39812;52.430;16.936;2023-06-14T12:55:38;28.70;54.90
53904;DHT22;39812;52.430;16.936;2023-06-14T12:58:04;29.00;54.00
53904;DHT22;39812;52.430;16.936;2023-06-14T13:00:30;29.60;53.10
53904;DHT22;39812;52.430;16.936;2023-06-14T13:02:56;29.80;52.40
53904;DHT22;39812;52.430;16.936;2023-06-14T13:05:22;30.30;51.70
53904;DHT22;39812;52.430;16.936;2023-06-14T13:07:48;30.20;51.30
53904;DHT22;39812;52.430;16.936;2023-06-14T13:10:13;29.90;50.00
53904;DHT22;39812;52.430;16.936;2023-06-14T13:12:39;29.10;50.90
53904;DHT22;39812;52.430;16.936;2023-06-14T13:15:06;28.50;51.10
53904;DHT22;39812;52.430;16.936;2023-06-14T13:17:34;28.50;51.80
53904;DHT22;39812;52.430;16.936;2023-06-14T13:20:05;28.70;52.20
53904;DHT22;39812;52.430;16.936;2023-06-14T13:22:31;28.40;51.70
53904;DHT22;39812;52.430;16.936;2023-06-14T13:24:56;28.80;50.90
53904;DHT22;39812;52.430;16.936;2023-06-14T13:27:22;28.70;50.70
53904;DHT22;39812;52.430;16.936;2023-06-14T13:29:49;29.10;51.20
53904;DHT22;39812;52.430;16.936;2023-06-14T13:32:14;29.90;51.00
53904;DHT22;39812;52.430;16.936;2023-06-14T13:34:40;31.40;48.80
53904;DHT22;39812;52.430;16.936;2023-06-14T13:37:06;32.50;47.00
53904;DHT22;39812;52.430;16.936;2023-06-14T13:39:31;36.30;45.20
53904;DHT22;39812;52.430;16.936;2023-06-14T13:41:57;40.40;42.00
53904;DHT22;39812;52.430;16.936;2023-06-14T13:44:22;42.10;39.00
53904;DHT22;39812;52.430;16.936;2023-06-14T13:46:48;44.00;37.30
53904;DHT22;39812;52.430;16.936;2023-06-14T13:49:14;43.80;35.10
53904;DHT22;39812;52.430;16.936;2023-06-14T13:51:40;42.30;35.50
53904;DHT22;39812;52.430;16.936;2023-06-14T13:54:05;40.20;36.60
53904;DHT22;39812;52.430;16.936;2023-06-14T13:56:31;40.10;37.00
53904;DHT22;39812;52.430;16.936;2023-06-14T13:58:57;37.80;38.40
53904;DHT22;39812;52.430;16.936;2023-06-14T14:01:22;37.40;39.00
53904;DHT22;39812;52.430;16.936;2023-06-14T14:03:49;38.90;38.70
53904;DHT22;39812;52.430;16.936;2023-06-14T14:06:15;38.50;38.00
53904;DHT22;39812;52.430;16.936;2023-06-14T14:08:41;36.40;39.20
53904;DHT22;39812;52.430;16.936;2023-06-14T14:11:08;34.50;41.20
53904;DHT22;39812;52.430;16.936;2023-06-14T14:13:34;33.10;43.00
53904;DHT22;39812;52.430;16.936;2023-06-14T14:16:02;31.90;44.30
53904;DHT22;39812;52.430;16.936;2023-06-14T14:18:27;31.00;45.80
53904;DHT22;39812;52.430;16.936;2023-06-14T14:20:53;29.70;47.40
53904;DHT22;39812;52.430;16.936;2023-06-14T14:23:19;28.80;49.50
53904;DHT22;39812;52.430;16.936;2023-06-14T14:25:46;27.50;51.60
53904;DHT22;39812;52.430;16.936;2023-06-14T14:28:11;26.70;53.00
53904;DHT22;39812;52.430;16.936;2023-06-14T14:30:39;25.80;54.40
53904;DHT22;39812;52.430;16.936;2023-06-14T14:33:05;25.00;54.50
53904;DHT22;39812;52.430;16.936;2023-06-14T14:35:32;25.20;53.40
53904;DHT22;39812;52.430;16.936;2023-06-14T14:37:57;25.80;52.10
53904;DHT22;39812;52.430;16.936;2023-06-14T14:40:23;25.40;52.10
53904;DHT22;39812;52.430;16.936;2023-06-14T14:42:49;25.70;52.10
53904;DHT22;39812;52.430;16.936;2023-06-14T14:45:15;26.20;51.80
53904;DHT22;39812;52.430;16.936;2023-06-14T14:47:40;26.40;51.80
53904;DHT22;39812;52.430;16.936;2023-06-14T14:50:06;26.60;51.40
53904;DHT22;39812;52.430;16.936;2023-06-14T14:52:36;26.30;51.40
53904;DHT22;39812;52.430;16.936;2023-06-14T14:55:01;26.30;50.10
53904;DHT22;39812;52.430;16.936;2023-06-14T14:57:27;26.40;50.30
53904;DHT22;39812;52.430;16.936;2023-06-14T14:59:53;26.30;50.50
53904;DHT22;39812;52.430;16.936;2023-06-14T15:02:20;26.40;50.80
53904;DHT22;39812;52.430;16.936;2023-06-14T15:04:46;26.40;50.80
53904;DHT22;39812;52.430;16.936;2023-06-14T15:07:11;26.50;51.00
53904;DHT22;39812;52.430;16.936;2023-06-14T15:09:38;26.70;51.00
53904;DHT22;39812;52.430;16.936;2023-06-14T15:12:04;28.00;50.80
53904;DHT22;39812;52.430;16.936;2023-06-14T15:14:29;30.00;47.40
53904;DHT22;39812;52.430;16.936;2023-06-14T15:16:55;30.30;46.50
53904;DHT22;39812;52.430;16.936;2023-06-14T15:19:23;31.20;45.90
53904;DHT22;39812;52.430;16.936;2023-06-14T15:21:48;30.60;45.50
53904;DHT22;39812;52.430;16.936;2023-06-14T15:24:14;30.10;46.50
53904;DHT22;39812;52.430;16.936;2023-06-14T15:26:40;29.50;47.00
53904;DHT22;39812;52.430;16.936;2023-06-14T15:29:05;29.20;47.90